Flowerfield, Illinois
Current Conditions -  °F | °C
As of 5:51 PM on Tuesday 25 Nov 2014 (Local Time) from KORD Reporting Station
Few Clouds Few Clouds  
Wind Chill: 11°   Ceiling: Unl
Heat Index: 21°   Visibility: 10mi
Dew Point: 15°   Wind: 8mph
Humidity: 78%   Direction: 240°WSW
Pressure: 30.16"   Gusts: NA
Location:  41.8742°N, 88.0172°W
Report Text: KORD 252351Z 24007KT 10SM FEW018 M06/M09 A3016 RMK AO2 SLP225 T10611094 11033 21061 53010
Loading
Personal Weather Stations






























Interactive Weather Map New forecast layout! Learn more

10-Day Weather Forecast

Advertisements
Track Severe Weather on mobile